Time;durP1;ratioP1;P1;durP2;ratioP2;P2;SDS_P1;SDS_P2;PMS_P1;PMS_P2;Temp;Humidity;BMP_temperature;BMP_pressure;BME280_temperature;BME280_humidity;BME280_pressure;Samples;Min_cycle;Max_cycle;Signal;HPM_P1;HPM_P2
2021/04/02 00:00:21;;;;;;;68.22;26.95;;;;;;;6.81;58.50;100541.78;5043608;28;20036;-78
2021/04/02 00:02:47;;;;;;;43.45;20.77;;;;;;;6.47;59.73;100540.84;5043115;28;20097;-83
2021/04/02 00:05:15;;;;;;;38.83;19.00;;;;;;;6.52;59.44;100528.28;5040161;28;20148;-80
2021/04/02 00:07:41;;;;;;;28.17;17.65;;;;;;;6.54;59.29;100519.00;5049282;28;20041;-85
2021/04/02 00:10:12;;;;;;;39.50;21.63;;;;;;;6.52;59.01;100532.50;5046347;28;20033;-83
2021/04/02 00:12:37;;;;;;;28.43;17.80;;;;;;;6.24;59.24;100534.47;5049455;28;20112;-83
2021/04/02 00:15:08;;;;;;;24.25;15.70;;;;;;;5.64;60.53;100482.38;5049607;28;20184;-83
2021/04/02 00:17:34;;;;;;;21.27;14.17;;;;;;;5.86;60.69;100528.03;5050494;28;20098;-84
2021/04/02 00:19:59;;;;;;;25.10;16.63;;;;;;;5.92;60.72;100520.69;5050205;28;20060;-84
2021/04/02 00:22:25;;;;;;;25.03;15.17;;;;;;;5.67;60.37;100474.88;5049083;28;20036;-82
2021/04/02 00:24:50;;;;;;;30.77;15.40;;;;;;;5.69;61.29;100527.06;5050390;28;20036;-83
2021/04/02 00:27:15;;;;;;;23.17;14.27;;;;;;;5.55;61.45;100516.03;5049189;28;20021;-83
2021/04/02 00:29:41;;;;;;;20.60;12.40;;;;;;;5.22;62.20;100513.28;5049207;28;20029;-81
2021/04/02 00:32:07;;;;;;;17.10;12.07;;;;;;;5.05;62.66;100519.03;5067792;28;20036;-84
2021/04/02 00:34:33;;;;;;;20.53;12.40;;;;;;;4.58;64.18;100518.81;5067826;28;20036;-82
2021/04/02 00:36:59;;;;;;;18.80;11.10;;;;;;;4.96;63.22;100525.38;5067919;28;20036;-83
2021/04/02 00:39:24;;;;;;;18.57;10.77;;;;;;;4.81;62.87;100506.53;5068795;28;20484;-82
2021/04/02 00:41:50;;;;;;;14.13;9.67;;;;;;;4.89;62.89;100522.38;5071431;28;20040;-83
2021/04/02 00:44:15;;;;;;;15.43;10.80;;;;;;;4.82;62.58;100521.09;5054635;28;20098;-85
2021/04/02 00:46:40;;;;;;;15.93;9.73;;;;;;;4.13;64.56;100510.91;5071370;28;20040;-83
2021/04/02 00:49:06;;;;;;;15.57;10.70;;;;;;;4.29;63.70;100460.78;5071497;28;20163;-83
2021/04/02 00:51:32;;;;;;;17.53;10.67;;;;;;;4.70;62.87;100511.00;5070931;28;20422;-84
2021/04/02 00:53:57;;;;;;;20.80;11.93;;;;;;;4.39;63.88;100488.66;5071529;28;20068;-78
2021/04/02 00:56:23;;;;;;;18.87;11.50;;;;;;;4.53;63.77;100515.94;5071075;28;20484;-78
2021/04/02 00:58:50;;;;;;;17.17;10.77;;;;;;;4.73;63.07;100511.19;5066130;28;20051;-78
2021/04/02 01:01:16;;;;;;;41.27;19.90;;;;;;;4.78;63.09;100514.03;5060405;28;20047;-78
2021/04/02 01:03:45;;;;;;;15.70;10.27;;;;;;;4.77;63.23;100512.25;5056990;28;20518;-81
2021/04/02 01:06:17;;;;;;;16.20;10.33;;;;;;;4.81;63.10;100503.97;5052295;28;20033;-78
2021/04/02 01:08:43;;;;;;;17.40;10.03;;;;;;;4.89;62.53;100482.31;5052383;28;20049;-78
2021/04/02 01:11:12;;;;;;;18.13;11.00;;;;;;;5.00;62.32;100483.81;5053532;28;20059;-78
2021/04/02 01:13:41;;;;;;;20.90;10.38;;;;;;;5.22;61.74;100495.34;5053718;28;20021;-77
2021/04/02 01:16:21;;;;;;;18.40;10.27;;;;;;;5.38;60.90;100493.69;5052528;28;20040;-79
2021/04/02 01:19:11;;;;;;;15.27;9.63;;;;;;;5.51;60.69;100488.47;5052024;28;20462;-78
2021/04/02 01:22:04;;;;;;;16.10;10.20;;;;;;;5.56;59.99;100492.19;5053288;28;20098;-77
2021/04/02 01:24:41;;;;;;;13.03;10.23;;;;;;;5.39;59.97;100455.34;5052423;28;20033;-77
2021/04/02 01:27:34;;;;;;;18.17;11.37;;;;;;;5.65;60.23;100479.88;5053646;28;20502;-77
2021/04/02 01:30:10;;;;;;;16.43;11.43;;;;;;;5.69;59.69;100464.72;5051975;28;20044;-78
2021/04/02 01:32:40;;;;;;;16.60;11.40;;;;;;;5.76;59.49;100462.56;5052226;28;20032;-77
2021/04/02 01:35:16;;;;;;;;;;;;;;;5.80;59.51;100473.88;5052154;28;20040;-78
2021/04/02 01:37:51;;;;;;;18.00;10.83;;;;;;;5.35;59.34;100399.66;5053129;28;20425;-78
2021/04/02 01:40:17;;;;;;;18.37;11.23;;;;;;;5.49;60.05;100456.78;5052137;28;20032;-76
2021/04/02 01:42:44;;;;;;;17.37;12.47;;;;;;;5.65;59.34;100461.97;5051756;28;20470;-77
2021/04/02 01:45:13;;;;;;;17.97;12.37;;;;;;;5.47;60.15;100454.13;5051606;28;20510;-77
2021/04/02 01:47:40;;;;;;;20.47;11.63;;;;;;;5.32;60.25;100461.81;5051775;28;20028;-77
2021/04/02 01:50:09;;;;;;;18.43;12.40;;;;;;;5.17;60.60;100456.69;5052944;28;20029;-77
2021/04/02 01:52:35;;;;;;;18.90;12.40;;;;;;;5.04;61.10;100455.88;5051878;28;20120;-78
2021/04/02 01:55:00;;;;;;;18.00;11.67;;;;;;;4.70;62.11;100459.88;5051576;28;20041;-76
2021/04/02 01:57:28;;;;;;;18.07;11.97;;;;;;;4.85;61.80;100444.56;5051783;28;20094;-76
2021/04/02 01:59:55;;;;;;;68.53;29.80;;;;;;;4.84;62.14;100443.66;5051423;28;20024;-77
2021/04/02 02:02:21;;;;;;;47.30;21.87;;;;;;;4.66;61.75;100383.75;5050992;28;20129;-78
2021/04/02 02:04:48;;;;;;;64.23;26.37;;;;;;;4.62;60.32;100351.13;5051315;28;20187;-77
2021/04/02 02:07:15;;;;;;;21.53;13.80;;;;;;;4.93;61.50;100396.41;5052352;28;20028;-77
2021/04/02 02:09:42;;;;;;;30.40;16.07;;;;;;;5.28;61.15;100447.09;5052568;28;20029;-77
2021/04/02 02:12:14;;;;;;;28.30;16.30;;;;;;;5.34;60.55;100426.06;5051395;28;20410;-78
2021/04/02 02:14:43;;;;;;;18.10;12.43;;;;;;;5.33;60.65;100429.41;5051135;28;20039;-77
2021/04/02 02:17:12;;;;;;;18.52;12.60;;;;;;;5.21;60.57;100419.34;5052477;28;20032;-77
2021/04/02 02:19:41;;;;;;;35.83;19.17;;;;;;;5.25;60.29;100415.31;5029936;28;20142;-77
2021/04/02 02:22:09;;;;;;;46.57;22.83;;;;;;;4.83;59.88;100338.69;5013616;28;20053;-78
2021/04/02 02:24:36;;;;;;;49.93;23.13;;;;;;;5.34;60.08;100426.91;5013386;28;20034;-77
2021/04/02 02:27:06;;;;;;;23.50;13.63;;;;;;;5.36;59.68;100416.78;5013611;28;20543;-77
2021/04/02 02:29:34;;;;;;;18.80;13.10;;;;;;;5.38;59.79;100433.09;5013237;28;20037;-77
2021/04/02 02:32:00;;;;;;;18.07;13.30;;;;;;;5.41;59.65;100427.28;5013570;28;20532;-77
2021/04/02 02:34:26;;;;;;;16.67;13.40;;;;;;;5.44;59.79;100430.91;5013287;28;20129;-77
2021/04/02 02:36:52;;;;;;;19.40;14.00;;;;;;;5.41;59.87;100428.19;5030056;28;20112;-77
2021/04/02 02:39:18;;;;;;;20.43;14.50;;;;;;;5.39;59.16;100434.00;5029917;28;20049;-77
2021/04/02 02:41:45;;;;;;;21.87;15.20;;;;;;;5.07;60.56;100430.47;5029741;28;20044;-76
2021/04/02 02:44:12;;;;;;;22.87;16.40;;;;;;;5.22;60.52;100443.25;5013104;28;20044;-76
2021/04/02 02:46:39;;;;;;;23.03;16.57;;;;;;;5.25;60.24;100438.34;5013298;28;20115;-77
2021/04/02 02:49:11;;;;;;;22.37;16.57;;;;;;;5.33;59.84;100440.53;5013058;28;20040;-76
2021/04/02 02:51:38;;;;;;;21.20;15.60;;;;;;;5.44;59.65;100440.25;5047057;28;20037;-77
2021/04/02 02:54:07;;;;;;;20.87;14.43;;;;;;;5.53;59.66;100420.28;5051717;28;20021;-77
2021/04/02 02:56:36;;;;;;;18.95;13.55;;;;;;;5.54;60.84;100429.75;5050460;28;20033;-77
2021/04/02 02:59:04;;;;;;;19.40;14.37;;;;;;;5.41;60.85;100432.41;5050741;28;20388;-77
2021/04/02 03:01:35;;;;;;;18.20;14.17;;;;;;;5.21;61.12;100409.13;5047338;28;20082;-76
2021/04/02 03:04:02;;;;;;;18.60;13.93;;;;;;;5.11;61.72;100414.47;5050116;28;20080;-76
2021/04/02 03:06:33;;;;;;;19.93;15.47;;;;;;;5.16;61.53;100420.78;5051562;28;20028;-77
2021/04/02 03:09:01;;;;;;;21.97;15.40;;;;;;;5.30;61.53;100434.38;5049470;28;20040;-77
2021/04/02 03:11:28;;;;;;;76.97;31.27;;;;;;;5.31;61.04;100425.91;5051662;28;20167;-77
2021/04/02 03:13:56;;;;;;;20.73;14.77;;;;;;;5.08;62.12;100414.31;5050234;28;20497;-77
2021/04/02 03:16:24;;;;;;;33.73;19.03;;;;;;;5.10;62.16;100421.28;5050245;28;20041;-77
2021/04/02 03:18:52;;;;;;;91.63;35.37;;;;;;;5.07;62.13;100425.34;5049958;28;20033;-76
2021/04/02 03:21:19;;;;;;;25.23;16.90;;;;;;;4.95;62.77;100408.47;5049990;28;20513;-77
2021/04/02 03:23:46;;;;;;;23.57;15.13;;;;;;;4.72;63.01;100368.75;5051234;28;20100;-77
2021/04/02 03:26:14;;;;;;;20.77;16.67;;;;;;;4.94;62.88;100419.50;5051497;28;20037;-77
2021/04/02 03:28:42;;;;;;;19.97;15.47;;;;;;;4.75;62.78;100416.66;5049850;28;20029;-77
2021/04/02 03:31:07;;;;;;;19.27;14.53;;;;;;;4.52;62.24;100399.16;5050030;28;20036;-76
2021/04/02 03:33:38;;;;;;;21.27;15.03;;;;;;;4.68;61.81;100405.19;5051251;28;20079;-77
2021/04/02 03:36:10;;;;;;;19.53;15.33;;;;;;;4.59;62.74;100395.28;5049729;28;20039;-78
2021/04/02 03:38:40;;;;;;;22.10;14.47;;;;;;;4.52;63.17;100416.16;5051110;28;20036;-78
2021/04/02 03:41:09;;;;;;;17.58;14.32;;;;;;;4.42;63.35;100412.16;5051177;28;20104;-77
2021/04/02 03:43:36;;;;;;;21.48;15.77;;;;;;;4.44;62.76;100417.38;5051041;28;20029;-77
2021/04/02 03:46:03;;;;;;;18.20;14.50;;;;;;;4.18;62.62;100368.13;5049855;28;20025;-78
2021/04/02 03:48:33;;;;;;;21.40;15.63;;;;;;;4.21;63.19;100399.84;5049767;28;20025;-77
2021/04/02 03:51:02;;;;;;;19.53;14.77;;;;;;;3.96;63.93;100404.22;5051235;28;20098;-77
2021/04/02 03:53:35;;;;;;;20.73;16.20;;;;;;;3.82;64.24;100406.78;5051064;28;20051;-77
2021/04/02 03:56:04;;;;;;;21.37;15.40;;;;;;;3.75;64.01;100389.34;5049980;28;20071;-77
2021/04/02 03:58:30;;;;;;;21.23;16.70;;;;;;;3.88;63.96;100406.31;5051380;28;20511;-77
2021/04/02 04:01:00;;;;;;;20.27;15.23;;;;;;;3.85;63.85;100393.34;5049445;28;20291;-77
2021/04/02 04:03:25;;;;;;;;;;;;;;;3.93;63.36;100410.03;5050051;28;20523;-76
2021/04/02 04:05:54;;;;;;;31.37;15.33;;;;;;;3.94;63.29;100408.34;5049765;28;19967;-78
2021/04/02 04:08:23;;;;;;;28.43;15.33;;;;;;;3.67;63.26;100355.66;5045070;28;20029;-77
2021/04/02 04:10:49;;;;;;;20.15;15.18;;;;;;;4.02;62.79;100405.47;5045048;28;20102;-77
2021/04/02 04:13:18;;;;;;;23.43;16.30;;;;;;;3.95;63.62;100413.56;5044777;28;20033;-76
2021/04/02 04:15:45;;;;;;;20.93;16.23;;;;;;;3.82;64.09;100406.78;5038812;28;20041;-77
2021/04/02 04:18:14;;;;;;;25.50;17.00;;;;;;;3.93;64.54;100409.16;5043867;28;20041;-77
2021/04/02 04:20:41;;;;;;;23.73;17.27;;;;;;;3.83;64.95;100411.13;5034781;28;20108;-77
2021/04/02 04:23:07;;;;;;;22.33;17.17;;;;;;;3.78;65.49;100414.19;5047084;28;20090;-77
2021/04/02 04:25:34;;;;;;;23.73;17.97;;;;;;;3.61;65.82;100375.69;5054668;28;20060;-77
2021/04/02 04:28:01;;;;;;;33.53;21.70;;;;;;;3.76;65.92;100395.31;5053220;28;20025;-77
2021/04/02 04:30:28;;;;;;;25.60;18.10;;;;;;;3.85;65.90;100406.09;5071661;28;20068;-77
2021/04/02 04:32:55;;;;;;;25.47;17.90;;;;;;;3.73;66.24;100417.31;5055516;28;20036;-76
2021/04/02 04:35:22;;;;;;;30.70;18.83;;;;;;;3.76;66.06;100411.50;5055518;28;20517;-77
2021/04/02 04:37:49;;;;;;;24.97;18.27;;;;;;;3.76;66.22;100420.84;5072362;28;20033;-77
2021/04/02 04:40:17;;;;;;;30.57;18.87;;;;;;;3.80;66.45;100407.47;5072027;28;20047;-77
2021/04/02 04:42:45;;;;;;;31.63;20.93;;;;;;;3.91;66.83;100401.38;5054494;28;20032;-77
2021/04/02 04:45:14;;;;;;;32.87;19.80;;;;;;;3.84;66.73;100396.69;5070238;28;20036;-79
2021/04/02 04:47:39;;;;;;;29.07;20.27;;;;;;;3.61;67.28;100385.03;5054791;28;20043;-81
2021/04/02 04:50:07;;;;;;;31.20;20.03;;;;;;;3.67;68.61;100410.94;5071525;28;20028;-78
2021/04/02 04:52:37;;;;;;;30.53;21.43;;;;;;;3.50;69.56;100404.75;5054604;28;20032;-77
2021/04/02 04:55:06;;;;;;;33.40;23.03;;;;;;;3.63;69.17;100409.88;5054772;28;20472;-78
2021/04/02 04:57:35;;;;;;;48.63;26.07;;;;;;;3.32;70.97;100361.09;5046085;28;20489;-77
2021/04/02 05:00:04;;;;;;;35.10;21.58;;;;;;;3.66;69.87;100415.16;5051279;28;20031;-77
2021/04/02 05:02:31;;;;;;;30.67;21.60;;;;;;;3.63;70.07;100404.75;5053903;28;20121;-78
2021/04/02 05:05:00;;;;;;;34.27;21.43;;;;;;;3.77;70.48;100405.63;5053500;28;20044;-77
2021/04/02 05:07:28;;;;;;;34.53;24.27;;;;;;;3.83;70.66;100420.47;5081439;28;20040;-78
2021/04/02 05:09:58;;;;;;;33.07;22.57;;;;;;;3.96;70.31;100397.47;5051443;28;20024;-78
2021/04/02 05:12:25;;;;;;;34.00;23.03;;;;;;;4.00;70.54;100396.84;5051738;28;20036;-78
2021/04/02 05:14:52;;;;;;;33.03;23.10;;;;;;;4.14;70.67;100419.84;5053325;28;20111;-78
2021/04/02 05:17:18;;;;;;;31.10;21.87;;;;;;;3.98;71.00;100385.66;5051844;28;20406;-78
2021/04/02 05:19:45;;;;;;;30.37;19.87;;;;;;;3.99;71.45;100389.97;5051859;28;20406;-78
2021/04/02 05:22:10;;;;;;;33.27;21.40;;;;;;;4.04;71.81;100398.81;5051145;28;20124;-78
2021/04/02 05:24:37;;;;;;;30.13;21.03;;;;;;;4.19;72.33;100418.44;5051870;28;20112;-78
2021/04/02 05:27:05;;;;;;;31.90;20.30;;;;;;;4.26;72.62;100409.47;5051653;28;20540;-78
2021/04/02 05:29:31;;;;;;;34.17;19.63;;;;;;;4.32;72.59;100420.06;5051767;28;20044;-78
2021/04/02 05:31:57;;;;;;;28.60;20.67;;;;;;;4.51;72.21;100412.72;5052005;28;20707;-78
2021/04/02 05:34:22;;;;;;;27.90;18.10;;;;;;;4.57;72.43;100412.19;5048276;28;20084;-78
2021/04/02 05:36:48;;;;;;;30.73;18.57;;;;;;;4.59;73.06;100390.16;5050120;28;20102;-78
2021/04/02 05:39:13;;;;;;;31.93;20.67;;;;;;;4.75;73.30;100406.41;5050730;28;20077;-79
2021/04/02 05:41:51;;;;;;;29.57;20.13;;;;;;;4.93;72.43;100410.06;5050397;28;20045;-78
2021/04/02 05:44:21;;;;;;;30.80;19.93;;;;;;;4.96;72.62;100411.91;5050418;28;20120;-79
2021/04/02 05:46:49;;;;;;;30.83;20.00;;;;;;;5.07;73.10;100415.09;5050452;28;20037;-78
2021/04/02 05:49:20;;;;;;;34.00;21.73;;;;;;;5.02;72.50;100382.47;5050275;28;20094;-79
2021/04/02 05:51:47;;;;;;;28.00;19.10;;;;;;;5.26;72.66;100406.81;5033793;28;20155;-79
2021/04/02 05:54:16;;;;;;;27.97;19.70;;;;;;;5.37;72.26;100399.75;5031215;28;20530;-79
2021/04/02 05:56:42;;;;;;;29.48;20.27;;;;;;;5.58;71.85;100407.75;5030387;28;20041;-79
2021/04/02 05:59:08;;;;;;;28.00;19.97;;;;;;;5.67;72.22;100395.47;5046692;28;20034;-79
2021/04/02 06:01:34;;;;;;;31.37;19.93;;;;;;;5.95;71.41;100394.41;5030349;28;20095;-79
2021/04/02 06:04:00;;;;;;;26.83;18.70;;;;;;;6.12;70.83;100380.84;5046426;28;20049;-79
2021/04/02 06:06:26;;;;;;;26.20;18.13;;;;;;;6.38;69.91;100383.94;5013581;28;20680;-80
2021/04/02 06:08:52;;;;;;;30.38;18.90;;;;;;;6.58;69.34;100389.19;5048929;28;20435;-79
2021/04/02 06:11:18;;;;;;;27.10;17.83;;;;;;;6.73;68.72;100387.44;5050191;28;20036;-79
2021/04/02 06:13:43;;;;;;;24.17;17.17;;;;;;;6.46;68.21;100326.19;5033061;28;20041;-78
2021/04/02 06:16:09;;;;;;;26.95;18.60;;;;;;;6.93;68.19;100377.31;5049588;28;20036;-79
2021/04/02 06:18:38;;;;;;;23.33;16.80;;;;;;;6.78;68.03;100331.22;5049693;28;20044;-79
2021/04/02 06:21:04;;;;;;;21.73;14.75;;;;;;;7.14;67.75;100382.63;5049740;28;20095;-79
2021/04/02 06:23:32;;;;;;;27.30;16.17;;;;;;;7.16;68.75;100383.56;5049679;28;20482;-79
2021/04/02 06:26:03;;;;;;;22.45;16.23;;;;;;;7.10;68.85;100371.31;5047632;28;20034;-79
2021/04/02 06:28:31;;;;;;;24.63;16.55;;;;;;;7.39;68.37;100378.66;5050533;28;20086;-79
2021/04/02 06:31:08;;;;;;;20.48;14.40;;;;;;;7.48;66.99;100373.97;5048548;28;20026;-79
2021/04/02 06:33:38;;;;;;;21.95;15.85;;;;;;;7.54;66.59;100373.38;5051532;28;20460;-79
2021/04/02 06:36:17;;;;;;;25.20;16.42;;;;;;;6.90;66.55;100277.94;5051939;28;20025;-78
2021/04/02 06:38:48;;;;;;;22.10;15.43;;;;;;;7.53;66.98;100362.22;5049249;28;20020;-80
2021/04/02 06:41:15;;;;;;;22.25;14.35;;;;;;;7.72;65.26;100365.66;5031835;28;20037;-78
2021/04/02 06:43:46;;;;;;;17.92;14.10;;;;;;;7.65;64.91;100364.50;5047185;28;20033;-79
2021/04/02 06:46:39;;;;;;;21.00;15.35;;;;;;;7.76;65.37;100360.75;5030709;28;20163;-79
2021/04/02 06:49:16;;;;;;;21.13;15.63;;;;;;;8.03;64.89;100373.09;5029685;28;20044;-79
2021/04/02 06:51:43;;;;;;;22.38;15.38;;;;;;;8.03;64.95;100354.22;5046978;28;20033;-79
2021/04/02 06:54:13;;;;;;;21.23;13.40;;;;;;;8.23;62.39;100362.84;5047592;28;20049;-79
2021/04/02 06:56:42;;;;;;;18.30;14.02;;;;;;;8.23;63.17;100350.84;5030573;28;20091;-79
2021/04/02 06:59:08;;;;;;;19.65;14.60;;;;;;;8.42;61.85;100354.22;5030499;28;20492;-79
2021/04/02 07:01:36;;;;;;;20.95;15.50;;;;;;;8.25;62.60;100313.22;5043047;28;20033;-79
2021/04/02 07:04:01;;;;;;;20.20;15.25;;;;;;;8.65;62.52;100347.53;5050252;28;20057;-79
2021/04/02 07:06:27;;;;;;;19.33;13.68;;;;;;;8.79;61.49;100337.81;5051180;28;20090;-79
2021/04/02 07:08:54;;;;;;;16.75;12.88;;;;;;;8.97;61.39;100349.69;5050151;28;20060;-79
2021/04/02 07:11:20;;;;;;;16.70;12.38;;;;;;;9.06;60.45;100350.97;5050055;28;20032;-80
2021/04/02 07:13:56;;;;;;;16.27;12.18;;;;;;;9.28;59.61;100349.25;5050174;28;20483;-79
2021/04/02 07:16:23;;;;;;;24.67;14.45;;;;;;;9.40;59.95;100325.69;5051176;28;20498;-79
2021/04/02 07:18:49;;;;;;;15.65;12.13;;;;;;;9.55;57.32;100338.28;5049886;28;20032;-79
2021/04/02 07:21:17;;;;;;;15.13;11.00;;;;;;;9.57;58.18;100328.03;5050930;28;20086;-80
2021/04/02 07:23:43;;;;;;;13.27;10.27;;;;;;;9.72;57.54;100331.22;5049218;28;20064;-79
2021/04/02 07:26:12;;;;;;;15.38;11.13;;;;;;;9.95;57.78;100349.25;5049936;28;20120;-79
2021/04/02 07:28:40;;;;;;;17.70;12.48;;;;;;;9.93;57.97;100332.84;5044699;28;20029;-79
2021/04/02 07:31:07;;;;;;;14.73;10.27;;;;;;;9.60;56.77;100248.28;5046461;28;20095;-79
2021/04/02 07:33:36;;;;;;;13.23;8.43;;;;;;;9.99;54.37;100260.84;5029438;28;20083;-77
2021/04/02 07:36:04;;;;;;;15.38;9.50;;;;;;;10.62;54.05;100325.03;5031448;28;20029;-79
2021/04/02 07:38:38;;;;;;;13.55;9.52;;;;;;;10.66;53.79;100319.13;5045426;28;20036;-79
2021/04/02 07:41:12;;;;;;;14.50;8.02;;;;;;;10.81;52.26;100311.00;5049675;28;20025;-79
2021/04/02 07:43:55;;;;;;;10.90;6.90;;;;;;;10.95;51.50;100314.09;5051611;28;20033;-79
2021/04/02 07:46:28;;;;;;;10.98;6.95;;;;;;;11.13;51.99;100320.66;5049658;28;20078;-79
2021/04/02 07:49:08;;;;;;;12.60;8.00;;;;;;;11.30;52.30;100322.09;5051556;28;20513;-79
2021/04/02 07:51:43;;;;;;;10.60;7.57;;;;;;;11.15;52.58;100303.50;5053995;28;20021;-79
2021/04/02 07:54:26;;;;;;;9.50;6.57;;;;;;;11.37;50.37;100307.63;5053901;28;20041;-79
2021/04/02 07:56:55;;;;;;;8.98;6.32;;;;;;;11.24;51.04;100300.31;5054052;28;20024;-78
2021/04/02 07:59:36;;;;;;;14.43;7.70;;;;;;;11.26;50.11;100306.44;5054695;28;20051;-79
2021/04/02 08:02:05;;;;;;;11.43;7.60;;;;;;;11.22;50.37;100302.88;5044428;28;20124;-79
2021/04/02 08:04:53;;;;;;;11.05;7.50;;;;;;;11.07;50.37;100259.34;5033585;28;20049;-80
2021/04/02 08:07:32;;;;;;;11.95;8.23;;;;;;;11.41;50.48;100299.13;5034849;28;20037;-79
2021/04/02 08:10:00;;;;;;;15.27;9.32;;;;;;;11.67;50.24;100306.81;5033510;28;20021;-80
2021/04/02 08:12:29;;;;;;;10.27;7.43;;;;;;;11.71;50.63;100303.47;5033571;28;20044;-78
2021/04/02 08:14:57;;;;;;;12.52;8.60;;;;;;;11.64;50.61;100271.41;5033127;28;20091;-79
2021/04/02 08:17:28;;;;;;;12.70;8.32;;;;;;;11.96;50.84;100293.88;5033318;28;20120;-77
2021/04/02 08:20:07;;;;;;;14.60;8.95;;;;;;;12.13;50.48;100297.81;5033235;28;20061;-80
2021/04/02 08:22:33;;;;;;;13.32;8.43;;;;;;;12.21;50.24;100289.38;5048958;28;20033;-79
2021/04/02 08:25:01;;;;;;;11.90;8.60;;;;;;;12.16;49.74;100245.25;5054348;28;20457;-79
2021/04/02 08:27:31;;;;;;;10.52;8.18;;;;;;;12.46;48.32;100286.63;5052908;28;20033;-79
2021/04/02 08:30:04;;;;;;;;;;;;;;;12.50;47.96;100272.06;5053316;28;20037;-80
2021/04/02 08:32:33;;;;;;;19.50;9.20;;;;;;;12.62;48.97;100256.84;5053160;28;20382;-79
2021/04/02 08:35:00;;;;;;;12.70;8.80;;;;;;;12.85;49.27;100260.84;5054382;28;20410;-79
2021/04/02 08:37:28;;;;;;;13.82;8.95;;;;;;;12.95;49.43;100260.22;5053047;28;20036;-79
2021/04/02 08:39:54;;;;;;;11.38;8.55;;;;;;;13.05;48.67;100249.22;5053035;28;20106;-79
2021/04/02 08:42:23;;;;;;;14.55;8.73;;;;;;;13.13;48.74;100243.34;5053781;28;20021;-79
2021/04/02 08:44:49;;;;;;;11.00;8.98;;;;;;;13.41;48.88;100245.72;5052697;28;20029;-78
2021/04/02 08:47:17;;;;;;;9.85;7.82;;;;;;;13.48;48.47;100248.47;5052355;28;20398;-79
2021/04/02 08:49:52;;;;;;;12.90;7.47;;;;;;;13.52;46.69;100243.38;5054137;28;20029;-76
2021/04/02 08:52:22;;;;;;;9.75;7.22;;;;;;;13.62;45.67;100231.47;5052563;28;20025;-78
2021/04/02 08:54:55;;;;;;;11.73;8.05;;;;;;;13.68;45.90;100233.31;5052568;28;20028;-78
2021/04/02 08:57:24;;;;;;;13.02;9.18;;;;;;;13.83;45.70;100227.53;5052488;28;20021;-78
2021/04/02 09:00:10;;;;;;;12.75;7.43;;;;;;;14.01;45.40;100222.72;5070174;28;20075;-78
2021/04/02 09:02:37;;;;;;;9.50;7.47;;;;;;;14.07;44.86;100220.25;5071499;28;20036;-78
2021/04/02 09:05:05;;;;;;;9.65;7.20;;;;;;;13.94;46.61;100220.84;5071113;28;20075;-79
2021/04/02 09:07:37;;;;;;;12.50;7.70;;;;;;;14.02;46.96;100215.81;5071065;28;20029;-77
2021/04/02 09:10:10;;;;;;;12.05;8.73;;;;;;;14.21;45.31;100214.44;5071103;28;20120;-78
2021/04/02 09:12:36;;;;;;;12.93;8.85;;;;;;;14.32;45.66;100199.91;5068120;28;20056;-76
2021/04/02 09:15:01;;;;;;;10.95;7.22;;;;;;;14.41;43.48;100186.22;5071210;28;20050;-78
2021/04/02 09:17:27;;;;;;;11.10;7.40;;;;;;;14.40;43.92;100167.16;5070949;28;20036;-79
2021/04/02 09:19:54;;;;;;;11.25;7.47;;;;;;;14.65;43.12;100206.53;5069903;28;20040;-76
2021/04/02 09:22:21;;;;;;;10.15;6.95;;;;;;;14.70;43.58;100186.72;5070852;28;20054;-76
2021/04/02 09:24:47;;;;;;;11.55;7.22;;;;;;;14.95;42.11;100175.81;5071143;28;20119;-80
2021/04/02 09:27:15;;;;;;;10.38;7.45;;;;;;;15.16;42.94;100189.09;5070841;28;20502;-78
2021/04/02 09:29:55;;;;;;;12.65;7.85;;;;;;;15.19;42.44;100178.75;5070760;28;20068;-78
2021/04/02 09:32:21;;;;;;;11.50;7.45;;;;;;;14.90;42.98;100102.09;5053269;28;20637;-78
2021/04/02 09:34:47;;;;;;;10.23;7.82;;;;;;;15.22;41.83;100171.84;5053431;28;20025;-79
2021/04/02 09:37:13;;;;;;;10.63;7.13;;;;;;;15.25;42.08;100170.13;5053593;28;20103;-77
2021/04/02 09:39:40;;;;;;;9.50;6.70;;;;;;;15.49;42.14;100172.19;5053302;28;20037;-79
2021/04/02 09:42:14;;;;;;;8.50;6.70;;;;;;;15.74;41.11;100171.56;5051618;28;20458;-81
2021/04/02 09:44:40;;;;;;;10.07;7.60;;;;;;;15.76;42.64;100162.94;5051537;28;20031;-78
2021/04/02 09:47:12;;;;;;;9.40;6.95;;;;;;;15.80;43.77;100161.22;5051474;28;20028;-77
2021/04/02 09:49:39;;;;;;;10.82;7.07;;;;;;;15.89;41.61;100165.69;5051637;28;20082;-78
2021/04/02 09:52:06;;;;;;;11.85;7.00;;;;;;;15.87;41.38;100157.03;5052808;28;20036;-78
2021/04/02 09:54:33;;;;;;;15.80;7.30;;;;;;;16.11;39.58;100167.69;5052824;28;20096;-79
2021/04/02 09:57:02;;;;;;;11.93;6.90;;;;;;;16.16;40.28;100163.38;5052734;28;20021;-80
2021/04/02 09:59:27;;;;;;;12.40;6.95;;;;;;;16.28;42.43;100154.78;5051249;28;20021;-77
2021/04/02 10:01:53;;;;;;;11.52;7.10;;;;;;;16.26;40.51;100148.72;5051927;28;20029;-79
2021/04/02 10:04:19;;;;;;;10.30;7.63;;;;;;;16.42;39.78;100148.81;5052695;28;20057;-80
2021/04/02 10:06:46;;;;;;;12.85;7.80;;;;;;;16.56;39.98;100160.22;5052658;28;20070;-79
2021/04/02 10:09:12;;;;;;;10.70;6.72;;;;;;;16.43;39.55;100134.94;5048558;28;20029;-77
2021/04/02 10:11:45;;;;;;;8.85;7.20;;;;;;;16.42;39.60;100141.00;5050461;28;20021;-78
2021/04/02 10:14:12;;;;;;;9.77;6.88;;;;;;;16.46;40.85;100137.56;5049099;28;20021;-78
2021/04/02 10:16:39;;;;;;;9.40;6.97;;;;;;;16.49;39.15;100125.41;5029779;28;20048;-77
2021/04/02 10:19:06;;;;;;;9.98;6.35;;;;;;;16.61;40.50;100124.66;5049145;28;20552;-80
2021/04/02 10:21:33;;;;;;;12.48;7.13;;;;;;;16.70;39.64;100115.13;5047758;28;20102;-78
2021/04/02 10:23:59;;;;;;;8.95;6.97;;;;;;;16.77;39.49;100122.13;5049761;28;20032;-79
2021/04/02 10:26:25;;;;;;;10.25;7.20;;;;;;;16.98;38.26;100132.72;5048958;28;20044;-78
2021/04/02 10:28:50;;;;;;;9.45;7.03;;;;;;;17.18;37.84;100118.03;5051135;28;20021;-78
2021/04/02 10:31:16;;;;;;;11.05;6.28;;;;;;;17.37;38.91;100103.31;5049969;28;20052;-78
2021/04/02 10:33:42;;;;;;;15.80;7.47;;;;;;;17.52;37.86;100107.69;5049002;28;20488;-77
2021/04/02 10:36:08;;;;;;;9.68;6.55;;;;;;;17.59;37.93;100115.53;5046278;28;20481;-77
2021/04/02 10:38:34;;;;;;;11.35;6.72;;;;;;;17.72;37.52;100100.78;5049707;28;20029;-78
2021/04/02 10:41:00;;;;;;;10.10;6.82;;;;;;;17.84;37.39;100094.69;5050864;28;20039;-77
2021/04/02 10:43:27;;;;;;;9.45;5.43;;;;;;;17.88;38.26;100086.03;5049882;28;20028;-78
2021/04/02 10:45:53;;;;;;;10.18;7.10;;;;;;;17.81;38.02;100084.25;5051982;28;20025;-80
2021/04/02 10:48:19;;;;;;;8.90;6.43;;;;;;;17.74;37.15;100054.66;5057941;28;20140;-78
2021/04/02 10:50:49;;;;;;;12.48;6.28;;;;;;;17.95;37.35;100069.50;5049635;28;20116;-80
2021/04/02 10:53:16;;;;;;;8.23;5.88;;;;;;;18.02;37.00;100066.88;5050267;28;20025;-80
2021/04/02 10:55:43;;;;;;;9.75;6.90;;;;;;;18.16;38.14;100070.38;5051213;28;20491;-78
2021/04/02 10:58:10;;;;;;;14.80;8.25;;;;;;;18.31;36.39;100072.09;5057504;28;20025;-79
2021/04/02 11:00:38;;;;;;;9.95;6.47;;;;;;;18.49;36.92;100076.44;5051340;28;20561;-79
2021/04/02 11:03:05;;;;;;;9.95;6.95;;;;;;;18.48;36.32;100077.31;5047018;28;20033;-76
2021/04/02 11:05:32;;;;;;;10.65;7.50;;;;;;;18.22;36.96;100074.75;5048078;28;20505;-76
2021/04/02 11:07:58;;;;;;;9.38;6.65;;;;;;;18.17;39.90;100074.72;5031486;28;20041;-77
2021/04/02 11:10:24;;;;;;;10.82;7.05;;;;;;;18.18;39.88;100071.25;5031178;28;20063;-77
2021/04/02 11:12:50;;;;;;;14.85;7.25;;;;;;;18.19;39.28;100066.88;5047996;28;20151;-77
2021/04/02 11:15:18;;;;;;;10.75;7.15;;;;;;;18.19;38.55;100044.22;5045270;28;20064;-81
2021/04/02 11:17:46;;;;;;;9.70;6.80;;;;;;;18.33;38.70;100054.69;5047906;28;20066;-80
2021/04/02 11:20:17;;;;;;;12.38;7.22;;;;;;;18.25;37.92;100031.16;5060134;28;20044;-78
2021/04/02 11:22:47;;;;;;;12.25;7.15;;;;;;;18.40;37.86;100003.25;5047761;28;20037;-78
2021/04/02 11:25:14;;;;;;;9.02;6.95;;;;;;;18.65;39.77;100004.03;5048210;28;20115;-78